Portada
METAR-TAF:

METAR-TAF

Aeropuertos :

Aruba, Aruba

Aeropuerto Internacional Reina Beatrix

latitud: 12-30N, longitud: 070-01W, altitud: 18 m

Observación

El informe se hizo hace 37 minutos, a las 15:00 UTC
Viento 19 kt del este
Temperatura 32°C
Humedad 67%
Presión 1012 hPa
Visibilidad 10 km o más
Nubes dispersas a una altura de 2000 ft

METAR: TNCA 201500Z 10019KT 9999 SCT020 32/25 Q1011 A2987 NOSIG

Hora: 11:37 (15:37 UTC)

Pronóstico

El informe se hizo hace 5 horas y 37 minutos, a las 10:00 UTC
Pronóstico válido del 20 a las 12 UTC al 21 a las 12 UTC
Viento 16 kt del este
Visibilidad 10 km o más
Nubes dispersas a una altura de 1800 ft
Temporalmente
del 20 a las 12 UTC al 20 a las 16 UTC
Cielo nuboso a una altura de 1400 ft

TAF: TNCA 201000Z 2012/2112 09016KT 9999 SCT018 TEMPO 2012/2016 BKN014

Observaciones y pronósticos meteorológicos de más de 4000 aeropuertos (mensajes METAR y TAF).

Los puntos amarillos y rojos representan las estaciones disponibles.

Ponga el ratón en el punto deseado para ver el nombre de la estación.

Haga clic para ver las observaciones y los pronósticos meteorológicos.

Para cambiar el mapa : haga clic en los botones verdes con una cruz de color negro para hacer un zoom, en el botón verde con un guión para alejar o en las flechas verdes para mapas adyacentes.


METAR-TAF: